Stellenausschreibung Fluglotse/-lotsin

Für Piloten: E-Bikes mieten

Aktuelles

E-Bikes mieten

Wir bieten unserer Kundschaft ab März 2022 die Möglichkeit, die nähere Umgebung unseres Flugplatzes mit dem E-Bike zu erkunden. Dazu können Sie bei uns 2 E-Bikes der Marke GHOST mieten. [ Mehr… ]

Aktuelles

  • Stand: 20.04.22 – 20.00 Uhr LT Betriebsstatus des Flugplatzes: Normal OPS gem. AIP Update: Tragen von Masken nur, wenn das Abstandsgebot nicht eingehalten werden kann! Aktuelle NOTAMs und Verfahren, Lokale Schutz- und Hygieneregelungen im Rahmen [ Mehr... ]

Aktuelles Platzwetter

EDQM 111350Z 03009KT 320V100 CAVOK 26/06 Q1023

Airport Shop Hof

Airport Shop Hof

Besuchen Sie unseren Shop und wählen Sie unter einer Vielzahl an Designs & Artikeln!

Partner

Anzeige:

Partner

Anzeige:

Partner

fleet-logo

CARGO SERVICES

SECURE & HIGH VALUE CARGO
DANGEROUS GOODS
AOG SOLUTIONS
TIME CRITICAL FREIGHT
AUTOMOTIVE

Doppelnutzung

In Abstimmung mit dem Freistaat Bayern wird der Verkehrslandeplatz Hof-Plauen bis auf weiteres einer Doppelnutzung ab 01.09.2015 zugeführt.

Aufgrund der Parallelnutzung zum Test von Fahrerassistenzsystemen aus dem Bereich der Automobilentwicklung ergibt sich folgende Einschränkungen:

Taxiway „B“ zeitweise nicht nutzbar und Vorfeldbereich eingeschränkt berollbar!